<?xml version="1.0" encoding="UTF-8" standalone="no" ?>
<gpx xmlns="http://www.topografix.com/GPX/1/1" xmlns:xsi="http://www.w3.org/2001/XMLSchema-instance" xsi:schemaLocation="http://www.topografix.com/GPX/1/1 http://www.topografix.com/GPX/1/1/gpx.xsd" version="1.1" creator="VisuGPX - https://www.visugpx.com">
  <metadata>
    <name>GR8S2_BarreMontsLesSables</name>
    <desc><![CDATA[gnerando idor: 12420232_12420290_12420300_12420307]]></desc>
  </metadata>
  <trk>
    <name><![CDATA[GR8S2J1_MoulinJodetMarines_21.6km-12420232]]></name>
    <extensions>
      <line xmlns="http://www.topografix.com/GPX/gpx_style/0/2">
        <color>FF0000</color>
        <width>4</width>
      </line>
    </extensions>
    <trkseg>
      <trkpt lat="46.85801" lon="-2.11987">
        <ele>14</ele>
        <time>2023-10-30T14:32:10Z</time>
      </trkpt>
      <trkpt lat="46.8574" lon="-2.12124">
        <ele>14</ele>
        <time>2023-10-30T14:34:39Z</time>
      </trkpt>
      <trkpt lat="46.85721" lon="-2.12253">
        <ele>13</ele>
        <time>2023-10-30T14:36:40Z</time>
      </trkpt>
      <trkpt lat="46.85716" lon="-2.12365">
        <ele>13</ele>
        <time>2023-10-30T14:38:22Z</time>
      </trkpt>
      <trkpt lat="46.85699" lon="-2.1241">
        <ele>13</ele>
        <time>2023-10-30T14:39:09Z</time>
      </trkpt>
      <trkpt lat="46.85564" lon="-2.12401">
        <ele>10</ele>
        <time>2023-10-30T14:42:09Z</time>
      </trkpt>
      <trkpt lat="46.85515" lon="-2.12433">
        <ele>12</ele>
        <time>2023-10-30T14:43:21Z</time>
      </trkpt>
      <trkpt lat="46.85499" lon="-2.12502">
        <ele>14</ele>
        <time>2023-10-30T14:44:27Z</time>
      </trkpt>
      <trkpt lat="46.85534" lon="-2.12732">
        <ele>10</ele>
        <time>2023-10-30T14:48:02Z</time>
      </trkpt>
      <trkpt lat="46.85505" lon="-2.12886">
        <ele>10</ele>
        <time>2023-10-30T14:50:28Z</time>
      </trkpt>
      <trkpt lat="46.85454" lon="-2.12966">
        <ele>10</ele>
        <time>2023-10-30T14:52:08Z</time>
      </trkpt>
      <trkpt lat="46.85391" lon="-2.13017">
        <ele>11</ele>
        <time>2023-10-30T14:53:44Z</time>
      </trkpt>
      <trkpt lat="46.8537" lon="-2.13084">
        <ele>11</ele>
        <time>2023-10-30T14:54:51Z</time>
      </trkpt>
      <trkpt lat="46.85294" lon="-2.13124">
        <ele>12</ele>
        <time>2023-10-30T14:56:39Z</time>
      </trkpt>
      <trkpt lat="46.85228" lon="-2.13105">
        <ele>11</ele>
        <time>2023-10-30T14:58:09Z</time>
      </trkpt>
      <trkpt lat="46.85251" lon="-2.13002">
        <ele>13</ele>
        <time>2023-10-30T14:59:48Z</time>
      </trkpt>
      <trkpt lat="46.85247" lon="-2.12961">
        <ele>14</ele>
        <time>2023-10-30T15:00:26Z</time>
      </trkpt>
      <trkpt lat="46.85179" lon="-2.12908">
        <ele>15</ele>
        <time>2023-10-30T15:02:08Z</time>
      </trkpt>
      <trkpt lat="46.85157" lon="-2.12955">
        <ele>13</ele>
        <time>2023-10-30T15:03:00Z</time>
      </trkpt>
      <trkpt lat="46.85107" lon="-2.12983">
        <ele>12</ele>
        <time>2023-10-30T15:04:12Z</time>
      </trkpt>
      <trkpt lat="46.85079" lon="-2.12978">
        <ele>12</ele>
        <time>2023-10-30T15:04:49Z</time>
      </trkpt>
      <trkpt lat="46.85041" lon="-2.13017">
        <ele>11</ele>
        <time>2023-10-30T15:05:51Z</time>
      </trkpt>
      <trkpt lat="46.85047" lon="-2.13036">
        <ele>10</ele>
        <time>2023-10-30T15:06:11Z</time>
      </trkpt>
      <trkpt lat="46.85009" lon="-2.13086">
        <ele>11</ele>
        <time>2023-10-30T15:07:19Z</time>
      </trkpt>
      <trkpt lat="46.85022" lon="-2.13105">
        <ele>10</ele>
        <time>2023-10-30T15:07:43Z</time>
      </trkpt>
      <trkpt lat="46.84996" lon="-2.13144">
        <ele>10</ele>
        <time>2023-10-30T15:08:33Z</time>
      </trkpt>
      <trkpt lat="46.84959" lon="-2.13137">
        <ele>10</ele>
        <time>2023-10-30T15:09:23Z</time>
      </trkpt>
      <trkpt lat="46.84936" lon="-2.13187">
        <ele>9</ele>
        <time>2023-10-30T15:10:18Z</time>
      </trkpt>
      <trkpt lat="46.8488" lon="-2.13122">
        <ele>10</ele>
        <time>2023-10-30T15:11:53Z</time>
      </trkpt>
      <trkpt lat="46.84836" lon="-2.13101">
        <ele>11</ele>
        <time>2023-10-30T15:12:55Z</time>
      </trkpt>
      <trkpt lat="46.84801" lon="-2.13122">
        <ele>11</ele>
        <time>2023-10-30T15:13:45Z</time>
      </trkpt>
      <trkpt lat="46.84768" lon="-2.13221">
        <ele>12</ele>
        <time>2023-10-30T15:15:26Z</time>
      </trkpt>
      <trkpt lat="46.84757" lon="-2.13302">
        <ele>11</ele>
        <time>2023-10-30T15:16:41Z</time>
      </trkpt>
      <trkpt lat="46.84729" lon="-2.13378">
        <ele>10</ele>
        <time>2023-10-30T15:18:00Z</time>
      </trkpt>
      <trkpt lat="46.84688" lon="-2.13421">
        <ele>10</ele>
        <time>2023-10-30T15:19:07Z</time>
      </trkpt>
      <trkpt lat="46.84645" lon="-2.13436">
        <ele>10</ele>
        <time>2023-10-30T15:20:06Z</time>
      </trkpt>
      <trkpt lat="46.84641" lon="-2.13472">
        <ele>10</ele>
        <time>2023-10-30T15:20:40Z</time>
      </trkpt>
      <trkpt lat="46.84558" lon="-2.13463">
        <ele>10</ele>
        <time>2023-10-30T15:22:31Z</time>
      </trkpt>
      <trkpt lat="46.84466" lon="-2.13466">
        <ele>10</ele>
        <time>2023-10-30T15:24:34Z</time>
      </trkpt>
      <trkpt lat="46.84406" lon="-2.13491">
        <ele>10</ele>
        <time>2023-10-30T15:25:57Z</time>
      </trkpt>
      <trkpt lat="46.84373" lon="-2.13573">
        <ele>10</ele>
        <time>2023-10-30T15:27:24Z</time>
      </trkpt>
      <trkpt lat="46.84281" lon="-2.1356">
        <ele>10</ele>
        <time>2023-10-30T15:29:27Z</time>
      </trkpt>
      <trkpt lat="46.84162" lon="-2.13605">
        <ele>9</ele>
        <time>2023-10-30T15:32:11Z</time>
      </trkpt>
      <trkpt lat="46.84159" lon="-2.1376">
        <ele>7</ele>
        <time>2023-10-30T15:34:33Z</time>
      </trkpt>
      <trkpt lat="46.84178" lon="-2.13905">
        <ele>8</ele>
        <time>2023-10-30T15:36:47Z</time>
      </trkpt>
      <trkpt lat="46.84056" lon="-2.13854">
        <ele>11</ele>
        <time>2023-10-30T15:39:37Z</time>
      </trkpt>
      <trkpt lat="46.83946" lon="-2.1385">
        <ele>9</ele>
        <time>2023-10-30T15:42:04Z</time>
      </trkpt>
      <trkpt lat="46.83913" lon="-2.13832">
        <ele>9</ele>
        <time>2023-10-30T15:42:51Z</time>
      </trkpt>
      <trkpt lat="46.83886" lon="-2.13811">
        <ele>8</ele>
        <time>2023-10-30T15:43:31Z</time>
      </trkpt>
      <trkpt lat="46.83817" lon="-2.13796">
        <ele>8</ele>
        <time>2023-10-30T15:45:04Z</time>
      </trkpt>
      <trkpt lat="46.83761" lon="-2.13762">
        <ele>7</ele>
        <time>2023-10-30T15:46:25Z</time>
      </trkpt>
      <trkpt lat="46.83698" lon="-2.13697">
        <ele>7</ele>
        <time>2023-10-30T15:48:08Z</time>
      </trkpt>
      <trkpt lat="46.83546" lon="-2.13772">
        <ele>7</ele>
        <time>2023-10-30T15:51:42Z</time>
      </trkpt>
      <trkpt lat="46.83493" lon="-2.13792">
        <ele>7</ele>
        <time>2023-10-30T15:52:55Z</time>
      </trkpt>
      <trkpt lat="46.83434" lon="-2.13785">
        <ele>7</ele>
        <time>2023-10-30T15:54:14Z</time>
      </trkpt>
      <trkpt lat="46.83364" lon="-2.13837">
        <ele>8</ele>
        <time>2023-10-30T15:55:59Z</time>
      </trkpt>
      <trkpt lat="46.83306" lon="-2.13862">
        <ele>8</ele>
        <time>2023-10-30T15:57:20Z</time>
      </trkpt>
      <trkpt lat="46.83111" lon="-2.14004">
        <ele>8</ele>
        <time>2023-10-30T16:02:11Z</time>
      </trkpt>
      <trkpt lat="46.82869" lon="-2.13935">
        <ele>8</ele>
        <time>2023-10-30T16:07:40Z</time>
      </trkpt>
      <trkpt lat="46.82768" lon="-2.13848">
        <ele>7</ele>
        <time>2023-10-30T16:10:16Z</time>
      </trkpt>
      <trkpt lat="46.82754" lon="-2.13897">
        <ele>8</ele>
        <time>2023-10-30T16:11:05Z</time>
      </trkpt>
      <trkpt lat="46.82719" lon="-2.13899">
        <ele>8</ele>
        <time>2023-10-30T16:11:51Z</time>
      </trkpt>
      <trkpt lat="46.82446" lon="-2.13856">
        <ele>6</ele>
        <time>2023-10-30T16:17:58Z</time>
      </trkpt>
      <trkpt lat="46.82383" lon="-2.13824">
        <ele>6</ele>
        <time>2023-10-30T16:19:27Z</time>
      </trkpt>
      <trkpt lat="46.82211" lon="-2.13779">
        <ele>6</ele>
        <time>2023-10-30T16:23:20Z</time>
      </trkpt>
      <trkpt lat="46.82229" lon="-2.13611">
        <ele>6</ele>
        <time>2023-10-30T16:25:55Z</time>
      </trkpt>
      <trkpt lat="46.82145" lon="-2.13562">
        <ele>8</ele>
        <time>2023-10-30T16:27:56Z</time>
      </trkpt>
      <trkpt lat="46.82138" lon="-2.13519">
        <ele>8</ele>
        <time>2023-10-30T16:28:36Z</time>
      </trkpt>
      <trkpt lat="46.81898" lon="-2.13397">
        <ele>9</ele>
        <time>2023-10-30T16:34:15Z</time>
      </trkpt>
      <trkpt lat="46.81757" lon="-2.13268">
        <ele>11</ele>
        <time>2023-10-30T16:37:57Z</time>
      </trkpt>
      <trkpt lat="46.81691" lon="-2.13109">
        <ele>12</ele>
        <time>2023-10-30T16:40:47Z</time>
      </trkpt>
      <trkpt lat="46.81195" lon="-2.12476">
        <ele>6</ele>
        <time>2023-10-30T16:55:26Z</time>
      </trkpt>
      <trkpt lat="46.81122" lon="-2.12502">
        <ele>6</ele>
        <time>2023-10-30T16:57:06Z</time>
      </trkpt>
      <trkpt lat="46.81086" lon="-2.12414">
        <ele>6</ele>
        <time>2023-10-30T16:58:40Z</time>
      </trkpt>
      <trkpt lat="46.8089" lon="-2.1215">
        <ele>5</ele>
        <time>2023-10-30T17:04:36Z</time>
      </trkpt>
      <trkpt lat="46.80741" lon="-2.11886">
        <ele>6</ele>
        <time>2023-10-30T17:09:48Z</time>
      </trkpt>
      <trkpt lat="46.8069" lon="-2.1182">
        <ele>7</ele>
        <time>2023-10-30T17:11:19Z</time>
      </trkpt>
      <trkpt lat="46.80627" lon="-2.11775">
        <ele>8</ele>
        <time>2023-10-30T17:12:53Z</time>
      </trkpt>
      <trkpt lat="46.80641" lon="-2.11712">
        <ele>8</ele>
        <time>2023-10-30T17:13:53Z</time>
      </trkpt>
      <trkpt lat="46.80583" lon="-2.11547">
        <ele>5</ele>
        <time>2023-10-30T17:16:43Z</time>
      </trkpt>
      <trkpt lat="46.80559" lon="-2.11466">
        <ele>5</ele>
        <time>2023-10-30T17:18:03Z</time>
      </trkpt>
      <trkpt lat="46.80555" lon="-2.11425">
        <ele>4</ele>
        <time>2023-10-30T17:18:41Z</time>
      </trkpt>
      <trkpt lat="46.80528" lon="-2.11416">
        <ele>5</ele>
        <time>2023-10-30T17:19:18Z</time>
      </trkpt>
      <trkpt lat="46.80386" lon="-2.112">
        <ele>6</ele>
        <time>2023-10-30T17:23:51Z</time>
      </trkpt>
      <trkpt lat="46.80392" lon="-2.10998">
        <ele>5</ele>
        <time>2023-10-30T17:26:56Z</time>
      </trkpt>
      <trkpt lat="46.80323" lon="-2.10831">
        <ele>9</ele>
        <time>2023-10-30T17:29:54Z</time>
      </trkpt>
      <trkpt lat="46.80327" lon="-2.10732">
        <ele>9</ele>
        <time>2023-10-30T17:31:25Z</time>
      </trkpt>
      <trkpt lat="46.80377" lon="-2.10586">
        <ele>9</ele>
        <time>2023-10-30T17:33:54Z</time>
      </trkpt>
      <trkpt lat="46.80439" lon="-2.10605">
        <ele>12</ele>
        <time>2023-10-30T17:35:19Z</time>
      </trkpt>
      <trkpt lat="46.805" lon="-2.10575">
        <ele>15</ele>
        <time>2023-10-30T17:36:44Z</time>
      </trkpt>
      <trkpt lat="46.8053" lon="-2.10521">
        <ele>15</ele>
        <time>2023-10-30T17:37:48Z</time>
      </trkpt>
      <trkpt lat="46.80494" lon="-2.10369">
        <ele>17</ele>
        <time>2023-10-30T17:40:15Z</time>
      </trkpt>
      <trkpt lat="46.80468" lon="-2.10341">
        <ele>17</ele>
        <time>2023-10-30T17:40:58Z</time>
      </trkpt>
      <trkpt lat="46.80467" lon="-2.10292">
        <ele>17</ele>
        <time>2023-10-30T17:41:43Z</time>
      </trkpt>
      <trkpt lat="46.80392" lon="-2.10234">
        <ele>13</ele>
        <time>2023-10-30T17:43:36Z</time>
      </trkpt>
      <trkpt lat="46.80355" lon="-2.1015">
        <ele>12</ele>
        <time>2023-10-30T17:45:07Z</time>
      </trkpt>
      <trkpt lat="46.8029" lon="-2.10088">
        <ele>12</ele>
        <time>2023-10-30T17:46:51Z</time>
      </trkpt>
      <trkpt lat="46.80287" lon="-2.10019">
        <ele>15</ele>
        <time>2023-10-30T17:47:54Z</time>
      </trkpt>
      <trkpt lat="46.80329" lon="-2.09891">
        <ele>23</ele>
        <time>2023-10-30T17:50:04Z</time>
      </trkpt>
      <trkpt lat="46.8034" lon="-2.09805">
        <ele>23</ele>
        <time>2023-10-30T17:51:24Z</time>
      </trkpt>
      <trkpt lat="46.80318" lon="-2.09725">
        <ele>19</ele>
        <time>2023-10-30T17:52:42Z</time>
      </trkpt>
      <trkpt lat="46.80321" lon="-2.09627">
        <ele>19</ele>
        <time>2023-10-30T17:54:12Z</time>
      </trkpt>
      <trkpt lat="46.80286" lon="-2.09545">
        <ele>20</ele>
        <time>2023-10-30T17:55:40Z</time>
      </trkpt>
      <trkpt lat="46.80249" lon="-2.09406">
        <ele>23</ele>
        <time>2023-10-30T17:57:56Z</time>
      </trkpt>
      <trkpt lat="46.80236" lon="-2.09329">
        <ele>20</ele>
        <time>2023-10-30T17:59:09Z</time>
      </trkpt>
      <trkpt lat="46.80211" lon="-2.09277">
        <ele>20</ele>
        <time>2023-10-30T18:00:07Z</time>
      </trkpt>
      <trkpt lat="46.80146" lon="-2.09275">
        <ele>23</ele>
        <time>2023-10-30T18:01:34Z</time>
      </trkpt>
      <trkpt lat="46.80133" lon="-2.09234">
        <ele>22</ele>
        <time>2023-10-30T18:02:15Z</time>
      </trkpt>
      <trkpt lat="46.80155" lon="-2.09146">
        <ele>22</ele>
        <time>2023-10-30T18:03:41Z</time>
      </trkpt>
      <trkpt lat="46.80129" lon="-2.09067">
        <ele>20</ele>
        <time>2023-10-30T18:05:01Z</time>
      </trkpt>
      <trkpt lat="46.80083" lon="-2.09017">
        <ele>22</ele>
        <time>2023-10-30T18:06:17Z</time>
      </trkpt>
      <trkpt lat="46.80011" lon="-2.09026">
        <ele>19</ele>
        <time>2023-10-30T18:07:54Z</time>
      </trkpt>
      <trkpt lat="46.80032" lon="-2.08841">
        <ele>23</ele>
        <time>2023-10-30T18:10:45Z</time>
      </trkpt>
      <trkpt lat="46.80035" lon="-2.08766">
        <ele>20</ele>
        <time>2023-10-30T18:11:54Z</time>
      </trkpt>
      <trkpt lat="46.80004" lon="-2.08678">
        <ele>21</ele>
        <time>2023-10-30T18:13:24Z</time>
      </trkpt>
      <trkpt lat="46.79955" lon="-2.0861">
        <ele>19</ele>
        <time>2023-10-30T18:14:54Z</time>
      </trkpt>
      <trkpt lat="46.79952" lon="-2.08567">
        <ele>18</ele>
        <time>2023-10-30T18:15:34Z</time>
      </trkpt>
      <trkpt lat="46.79973" lon="-2.08522">
        <ele>17</ele>
        <time>2023-10-30T18:16:23Z</time>
      </trkpt>
      <trkpt lat="46.79926" lon="-2.08429">
        <ele>19</ele>
        <time>2023-10-30T18:18:09Z</time>
      </trkpt>
      <trkpt lat="46.799" lon="-2.08329">
        <ele>20</ele>
        <time>2023-10-30T18:19:47Z</time>
      </trkpt>
      <trkpt lat="46.79857" lon="-2.08296">
        <ele>21</ele>
        <time>2023-10-30T18:20:52Z</time>
      </trkpt>
      <trkpt lat="46.79831" lon="-2.08189">
        <ele>18</ele>
        <time>2023-10-30T18:22:35Z</time>
      </trkpt>
      <trkpt lat="46.79797" lon="-2.0814">
        <ele>17</ele>
        <time>2023-10-30T18:23:39Z</time>
      </trkpt>
      <trkpt lat="46.79804" lon="-2.08063">
        <ele>16</ele>
        <time>2023-10-30T18:24:50Z</time>
      </trkpt>
      <trkpt lat="46.79775" lon="-2.08017">
        <ele>18</ele>
        <time>2023-10-30T18:25:47Z</time>
      </trkpt>
      <trkpt lat="46.7976" lon="-2.07949">
        <ele>16</ele>
        <time>2023-10-30T18:26:52Z</time>
      </trkpt>
      <trkpt lat="46.79695" lon="-2.07861">
        <ele>18</ele>
        <time>2023-10-30T18:28:51Z</time>
      </trkpt>
      <trkpt lat="46.79678" lon="-2.07822">
        <ele>18</ele>
        <time>2023-10-30T18:29:33Z</time>
      </trkpt>
      <trkpt lat="46.79641" lon="-2.07786">
        <ele>19</ele>
        <time>2023-10-30T18:30:32Z</time>
      </trkpt>
      <trkpt lat="46.7961" lon="-2.07623">
        <ele>16</ele>
        <time>2023-10-30T18:33:07Z</time>
      </trkpt>
      <trkpt lat="46.79529" lon="-2.07509">
        <ele>15</ele>
        <time>2023-10-30T18:35:37Z</time>
      </trkpt>
      <trkpt lat="46.79463" lon="-2.07402">
        <ele>17</ele>
        <time>2023-10-30T18:37:48Z</time>
      </trkpt>
      <trkpt lat="46.79402" lon="-2.07391">
        <ele>16</ele>
        <time>2023-10-30T18:39:10Z</time>
      </trkpt>
      <trkpt lat="46.79358" lon="-2.07354">
        <ele>16</ele>
        <time>2023-10-30T18:40:18Z</time>
      </trkpt>
      <trkpt lat="46.79311" lon="-2.07299">
        <ele>19</ele>
        <time>2023-10-30T18:41:39Z</time>
      </trkpt>
      <trkpt lat="46.79268" lon="-2.07277">
        <ele>19</ele>
        <time>2023-10-30T18:42:39Z</time>
      </trkpt>
      <trkpt lat="46.79243" lon="-2.07226">
        <ele>20</ele>
        <time>2023-10-30T18:43:37Z</time>
      </trkpt>
      <trkpt lat="46.79228" lon="-2.07148">
        <ele>20</ele>
        <time>2023-10-30T18:44:51Z</time>
      </trkpt>
      <trkpt lat="46.79199" lon="-2.07078">
        <ele>16</ele>
        <time>2023-10-30T18:46:05Z</time>
      </trkpt>
      <trkpt lat="46.79134" lon="-2.07015">
        <ele>13</ele>
        <time>2023-10-30T18:47:49Z</time>
      </trkpt>
      <trkpt lat="46.79136" lon="-2.06962">
        <ele>14</ele>
        <time>2023-10-30T18:48:38Z</time>
      </trkpt>
      <trkpt lat="46.79125" lon="-2.06942">
        <ele>14</ele>
        <time>2023-10-30T18:49:01Z</time>
      </trkpt>
      <trkpt lat="46.79037" lon="-2.0691">
        <ele>11</ele>
        <time>2023-10-30T18:51:02Z</time>
      </trkpt>
      <trkpt lat="46.79021" lon="-2.06835">
        <ele>11</ele>
        <time>2023-10-30T18:52:14Z</time>
      </trkpt>
      <trkpt lat="46.79002" lon="-2.06788">
        <ele>12</ele>
        <time>2023-10-30T18:53:04Z</time>
      </trkpt>
      <trkpt lat="46.7898" lon="-2.06672">
        <ele>14</ele>
        <time>2023-10-30T18:54:54Z</time>
      </trkpt>
      <trkpt lat="46.79086" lon="-2.06477">
        <ele>14</ele>
        <time>2023-10-30T18:58:42Z</time>
      </trkpt>
      <trkpt lat="46.7903" lon="-2.06262">
        <ele>11</ele>
        <time>2023-10-30T19:02:12Z</time>
      </trkpt>
      <trkpt lat="46.79034" lon="-2.05863">
        <ele>9</ele>
        <time>2023-10-30T19:08:16Z</time>
      </trkpt>
      <trkpt lat="46.78964" lon="-2.05882">
        <ele>13</ele>
        <time>2023-10-30T19:09:51Z</time>
      </trkpt>
      <trkpt lat="46.78923" lon="-2.0588">
        <ele>16</ele>
        <time>2023-10-30T19:10:46Z</time>
      </trkpt>
      <trkpt lat="46.78786" lon="-2.0591">
        <ele>13</ele>
        <time>2023-10-30T19:13:51Z</time>
      </trkpt>
      <trkpt lat="46.78789" lon="-2.05994">
        <ele>12</ele>
        <time>2023-10-30T19:15:08Z</time>
      </trkpt>
      <trkpt lat="46.78657" lon="-2.06144">
        <ele>9</ele>
        <time>2023-10-30T19:18:51Z</time>
      </trkpt>
      <trkpt lat="46.78585" lon="-2.0608">
        <ele>8</ele>
        <time>2023-10-30T19:20:43Z</time>
      </trkpt>
      <trkpt lat="46.78445" lon="-2.05882">
        <ele>11</ele>
        <time>2023-10-30T19:25:04Z</time>
      </trkpt>
      <trkpt lat="46.78382" lon="-2.05927">
        <ele>10</ele>
        <time>2023-10-30T19:26:37Z</time>
      </trkpt>
      <trkpt lat="46.78291" lon="-2.05947">
        <ele>9</ele>
        <time>2023-10-30T19:28:40Z</time>
      </trkpt>
      <trkpt lat="46.7819" lon="-2.05796">
        <ele>8</ele>
        <time>2023-10-30T19:31:53Z</time>
      </trkpt>
      <trkpt lat="46.78138" lon="-2.05751">
        <ele>7</ele>
        <time>2023-10-30T19:33:13Z</time>
      </trkpt>
      <trkpt lat="46.78253" lon="-2.05601">
        <ele>8</ele>
        <time>2023-10-30T19:36:39Z</time>
      </trkpt>
      <trkpt lat="46.78317" lon="-2.0555">
        <ele>10</ele>
        <time>2023-10-30T19:38:17Z</time>
      </trkpt>
      <trkpt lat="46.78426" lon="-2.05213">
        <ele>9</ele>
        <time>2023-10-30T19:43:57Z</time>
      </trkpt>
      <trkpt lat="46.78488" lon="-2.05149">
        <ele>12</ele>
        <time>2023-10-30T19:45:38Z</time>
      </trkpt>
      <trkpt lat="46.78599" lon="-2.05106">
        <ele>10</ele>
        <time>2023-10-30T19:48:12Z</time>
      </trkpt>
      <trkpt lat="46.78663" lon="-2.04953">
        <ele>9</ele>
        <time>2023-10-30T19:50:56Z</time>
      </trkpt>
      <trkpt lat="46.7872" lon="-2.04908">
        <ele>9</ele>
        <time>2023-10-30T19:52:22Z</time>
      </trkpt>
      <trkpt lat="46.78793" lon="-2.04872">
        <ele>8</ele>
        <time>2023-10-30T19:54:05Z</time>
      </trkpt>
      <trkpt lat="46.78586" lon="-2.04455">
        <ele>9</ele>
        <time>2023-10-30T20:01:55Z</time>
      </trkpt>
      <trkpt lat="46.78464" lon="-2.04357">
        <ele>11</ele>
        <time>2023-10-30T20:05:01Z</time>
      </trkpt>
      <trkpt lat="46.78404" lon="-2.04245">
        <ele>10</ele>
        <time>2023-10-30T20:07:11Z</time>
      </trkpt>
      <trkpt lat="46.78336" lon="-2.04138">
        <ele>11</ele>
        <time>2023-10-30T20:09:25Z</time>
      </trkpt>
      <trkpt lat="46.78294" lon="-2.04041">
        <ele>10</ele>
        <time>2023-10-30T20:11:09Z</time>
      </trkpt>
      <trkpt lat="46.78242" lon="-2.03846">
        <ele>10</ele>
        <time>2023-10-30T20:14:21Z</time>
      </trkpt>
      <trkpt lat="46.78116" lon="-2.03569">
        <ele>7</ele>
        <time>2023-10-30T20:19:25Z</time>
      </trkpt>
      <trkpt lat="46.77796" lon="-2.03408">
        <ele>7</ele>
        <time>2023-10-30T20:26:56Z</time>
      </trkpt>
      <trkpt lat="46.77728" lon="-2.03346">
        <ele>6</ele>
        <time>2023-10-30T20:28:43Z</time>
      </trkpt>
      <trkpt lat="46.77646" lon="-2.03301">
        <ele>9</ele>
        <time>2023-10-30T20:30:40Z</time>
      </trkpt>
      <trkpt lat="46.77555" lon="-2.03198">
        <ele>8</ele>
        <time>2023-10-30T20:33:14Z</time>
      </trkpt>
      <trkpt lat="46.77506" lon="-2.03174">
        <ele>7</ele>
        <time>2023-10-30T20:34:23Z</time>
      </trkpt>
      <trkpt lat="46.77433" lon="-2.03185">
        <ele>6</ele>
        <time>2023-10-30T20:36:01Z</time>
      </trkpt>
      <trkpt lat="46.76789" lon="-2.02123">
        <ele>4</ele>
        <time>2023-10-30T20:57:37Z</time>
      </trkpt>
      <trkpt lat="46.76683" lon="-2.01979">
        <ele>4</ele>
        <time>2023-10-30T21:00:50Z</time>
      </trkpt>
      <trkpt lat="46.7663" lon="-2.01861">
        <ele>4</ele>
        <time>2023-10-30T21:02:59Z</time>
      </trkpt>
      <trkpt lat="46.76596" lon="-2.01805">
        <ele>5</ele>
        <time>2023-10-30T21:04:08Z</time>
      </trkpt>
      <trkpt lat="46.7638" lon="-2.01614">
        <ele>10</ele>
        <time>2023-10-30T21:09:45Z</time>
      </trkpt>
      <trkpt lat="46.76335" lon="-2.01509">
        <ele>8</ele>
        <time>2023-10-30T21:11:38Z</time>
      </trkpt>
      <trkpt lat="46.76317" lon="-2.01419">
        <ele>6</ele>
        <time>2023-10-30T21:13:04Z</time>
      </trkpt>
      <trkpt lat="46.7628" lon="-2.01355">
        <ele>7</ele>
        <time>2023-10-30T21:14:20Z</time>
      </trkpt>
      <trkpt lat="46.76201" lon="-2.01275">
        <ele>5</ele>
        <time>2023-10-30T21:16:28Z</time>
      </trkpt>
      <trkpt lat="46.76173" lon="-2.01228">
        <ele>6</ele>
        <time>2023-10-30T21:17:25Z</time>
      </trkpt>
      <trkpt lat="46.76175" lon="-2.01164">
        <ele>5</ele>
        <time>2023-10-30T21:18:24Z</time>
      </trkpt>
      <trkpt lat="46.76138" lon="-2.01162">
        <ele>5</ele>
        <time>2023-10-30T21:19:13Z</time>
      </trkpt>
      <trkpt lat="46.76034" lon="-2.01145">
        <ele>6</ele>
        <time>2023-10-30T21:21:33Z</time>
      </trkpt>
      <trkpt lat="46.75779" lon="-2.01198">
        <ele>5</ele>
        <time>2023-10-30T21:27:17Z</time>
      </trkpt>
      <trkpt lat="46.75615" lon="-2.01258">
        <ele>3</ele>
        <time>2023-10-30T21:31:02Z</time>
      </trkpt>
      <trkpt lat="46.75362" lon="-2.01449">
        <ele>1</ele>
        <time>2023-10-30T21:37:22Z</time>
      </trkpt>
      <trkpt lat="46.75222" lon="-2.01524">
        <ele>1</ele>
        <time>2023-10-30T21:40:41Z</time>
      </trkpt>
      <trkpt lat="46.75121" lon="-2.01614">
        <ele>4</ele>
        <time>2023-10-30T21:43:19Z</time>
      </trkpt>
    </trkseg>
  </trk>
</gpx>